sensor_id;sensor_type;location;lat;lon;timestamp;P1;durP1;ratioP1;P2;durP2;ratioP2
68680;SDS011;55836;49.858;6.756;2022-10-15T00:00:46;6.47;;;3.10;;
68680;SDS011;55836;49.858;6.756;2022-10-15T00:03:12;4.40;;;2.80;;
68680;SDS011;55836;49.858;6.756;2022-10-15T00:05:39;8.63;;;3.37;;
68680;SDS011;55836;49.858;6.756;2022-10-15T00:08:06;7.80;;;4.00;;
68680;SDS011;55836;49.858;6.756;2022-10-15T00:10:32;4.60;;;2.90;;
68680;SDS011;55836;49.858;6.756;2022-10-15T00:12:58;4.50;;;2.50;;
68680;SDS011;55836;49.858;6.756;2022-10-15T00:15:24;3.50;;;2.53;;
68680;SDS011;55836;49.858;6.756;2022-10-15T00:17:50;3.63;;;2.70;;
68680;SDS011;55836;49.858;6.756;2022-10-15T00:20:16;3.60;;;2.70;;
68680;SDS011;55836;49.858;6.756;2022-10-15T00:22:42;6.63;;;2.90;;
68680;SDS011;55836;49.858;6.756;2022-10-15T00:25:09;9.60;;;2.43;;
68680;SDS011;55836;49.858;6.756;2022-10-15T00:27:35;3.73;;;2.40;;
68680;SDS011;55836;49.858;6.756;2022-10-15T00:30:02;3.70;;;2.70;;
68680;SDS011;55836;49.858;6.756;2022-10-15T00:32:29;3.03;;;2.50;;
68680;SDS011;55836;49.858;6.756;2022-10-15T00:34:55;4.53;;;2.70;;
68680;SDS011;55836;49.858;6.756;2022-10-15T00:37:21;4.60;;;2.70;;
68680;SDS011;55836;49.858;6.756;2022-10-15T00:39:47;7.23;;;2.73;;
68680;SDS011;55836;49.858;6.756;2022-10-15T00:42:13;6.60;;;2.63;;
68680;SDS011;55836;49.858;6.756;2022-10-15T00:44:54;3.83;;;2.90;;
68680;SDS011;55836;49.858;6.756;2022-10-15T00:47:25;4.07;;;2.70;;
68680;SDS011;55836;49.858;6.756;2022-10-15T00:49:56;9.17;;;2.93;;
68680;SDS011;55836;49.858;6.756;2022-10-15T00:52:47;5.47;;;2.90;;
68680;SDS011;55836;49.858;6.756;2022-10-15T00:55:14;7.20;;;3.00;;
68680;SDS011;55836;49.858;6.756;2022-10-15T00:57:41;5.80;;;2.47;;
68680;SDS011;55836;49.858;6.756;2022-10-15T01:00:09;6.07;;;2.73;;
68680;SDS011;55836;49.858;6.756;2022-10-15T01:02:36;3.43;;;2.30;;
68680;SDS011;55836;49.858;6.756;2022-10-15T01:05:02;6.90;;;2.23;;
68680;SDS011;55836;49.858;6.756;2022-10-15T01:07:28;3.43;;;2.40;;
68680;SDS011;55836;49.858;6.756;2022-10-15T01:09:54;7.33;;;2.90;;
68680;SDS011;55836;49.858;6.756;2022-10-15T01:17:37;3.90;;;3.03;;
68680;SDS011;55836;49.858;6.756;2022-10-15T01:20:19;5.07;;;3.10;;
68680;SDS011;55836;49.858;6.756;2022-10-15T01:30:37;6.83;;;4.03;;
68680;SDS011;55836;49.858;6.756;2022-10-15T01:35:45;6.03;;;4.30;;
68680;SDS011;55836;49.858;6.756;2022-10-15T01:40:55;7.80;;;4.20;;
68680;SDS011;55836;49.858;6.756;2022-10-15T01:43:40;9.53;;;4.37;;
68680;SDS011;55836;49.858;6.756;2022-10-15T01:46:13;10.17;;;4.30;;
68680;SDS011;55836;49.858;6.756;2022-10-15T01:48:41;9.47;;;4.03;;
68680;SDS011;55836;49.858;6.756;2022-10-15T01:51:07;10.00;;;4.47;;
68680;SDS011;55836;49.858;6.756;2022-10-15T01:53:35;9.80;;;4.60;;
68680;SDS011;55836;49.858;6.756;2022-10-15T01:56:12;10.83;;;4.53;;
68680;SDS011;55836;49.858;6.756;2022-10-15T01:58:39;7.73;;;3.90;;
68680;SDS011;55836;49.858;6.756;2022-10-15T02:01:07;9.20;;;4.07;;
68680;SDS011;55836;49.858;6.756;2022-10-15T02:03:42;8.83;;;3.40;;
68680;SDS011;55836;49.858;6.756;2022-10-15T02:06:09;10.50;;;4.03;;
68680;SDS011;55836;49.858;6.756;2022-10-15T02:08:38;11.40;;;3.00;;
68680;SDS011;55836;49.858;6.756;2022-10-15T02:11:06;7.47;;;3.70;;
68680;SDS011;55836;49.858;6.756;2022-10-15T02:18:59;5.93;;;3.17;;
68680;SDS011;55836;49.858;6.756;2022-10-15T02:26:24;10.50;;;4.27;;
68680;SDS011;55836;49.858;6.756;2022-10-15T02:28:53;8.40;;;3.03;;
68680;SDS011;55836;49.858;6.756;2022-10-15T02:31:21;9.03;;;4.43;;
68680;SDS011;55836;49.858;6.756;2022-10-15T02:33:47;7.50;;;3.73;;
68680;SDS011;55836;49.858;6.756;2022-10-15T02:36:14;11.40;;;4.63;;
68680;SDS011;55836;49.858;6.756;2022-10-15T02:38:41;9.33;;;5.33;;
68680;SDS011;55836;49.858;6.756;2022-10-15T02:41:09;10.87;;;6.07;;
68680;SDS011;55836;49.858;6.756;2022-10-15T02:43:36;14.87;;;7.43;;
68680;SDS011;55836;49.858;6.756;2022-10-15T02:46:02;15.17;;;7.80;;
68680;SDS011;55836;49.858;6.756;2022-10-15T02:48:29;18.47;;;8.00;;
68680;SDS011;55836;49.858;6.756;2022-10-15T02:50:55;19.63;;;8.63;;
68680;SDS011;55836;49.858;6.756;2022-10-15T02:53:21;16.13;;;8.23;;
68680;SDS011;55836;49.858;6.756;2022-10-15T02:55:47;18.90;;;8.57;;
68680;SDS011;55836;49.858;6.756;2022-10-15T02:58:13;14.47;;;9.70;;
68680;SDS011;55836;49.858;6.756;2022-10-15T03:00:39;17.90;;;10.07;;
68680;SDS011;55836;49.858;6.756;2022-10-15T03:03:05;17.37;;;8.90;;
68680;SDS011;55836;49.858;6.756;2022-10-15T03:05:32;18.53;;;8.50;;
68680;SDS011;55836;49.858;6.756;2022-10-15T03:07:58;19.00;;;9.17;;
68680;SDS011;55836;49.858;6.756;2022-10-15T03:10:25;23.17;;;9.10;;
68680;SDS011;55836;49.858;6.756;2022-10-15T03:12:51;16.13;;;8.97;;
68680;SDS011;55836;49.858;6.756;2022-10-15T03:15:17;22.53;;;9.63;;
68680;SDS011;55836;49.858;6.756;2022-10-15T03:17:43;20.00;;;9.80;;
68680;SDS011;55836;49.858;6.756;2022-10-15T03:20:09;19.03;;;9.03;;
68680;SDS011;55836;49.858;6.756;2022-10-15T03:22:35;22.93;;;10.17;;
68680;SDS011;55836;49.858;6.756;2022-10-15T03:25:01;19.33;;;9.77;;
68680;SDS011;55836;49.858;6.756;2022-10-15T03:27:27;22.33;;;10.67;;
68680;SDS011;55836;49.858;6.756;2022-10-15T03:29:53;16.47;;;9.90;;
68680;SDS011;55836;49.858;6.756;2022-10-15T03:32:19;22.67;;;10.30;;
68680;SDS011;55836;49.858;6.756;2022-10-15T03:34:45;21.13;;;11.70;;
68680;SDS011;55836;49.858;6.756;2022-10-15T03:37:11;21.70;;;11.00;;
68680;SDS011;55836;49.858;6.756;2022-10-15T03:39:37;22.43;;;11.03;;
68680;SDS011;55836;49.858;6.756;2022-10-15T03:42:03;22.27;;;9.73;;
68680;SDS011;55836;49.858;6.756;2022-10-15T03:44:29;17.87;;;9.93;;
68680;SDS011;55836;49.858;6.756;2022-10-15T03:46:55;19.80;;;9.33;;
68680;SDS011;55836;49.858;6.756;2022-10-15T03:49:21;19.50;;;9.80;;
68680;SDS011;55836;49.858;6.756;2022-10-15T03:51:47;14.47;;;8.80;;
68680;SDS011;55836;49.858;6.756;2022-10-15T03:54:13;11.77;;;7.10;;
68680;SDS011;55836;49.858;6.756;2022-10-15T03:56:39;13.77;;;8.00;;
68680;SDS011;55836;49.858;6.756;2022-10-15T03:59:05;12.83;;;7.27;;
68680;SDS011;55836;49.858;6.756;2022-10-15T04:01:31;12.33;;;7.27;;
68680;SDS011;55836;49.858;6.756;2022-10-15T04:03:57;17.40;;;8.47;;
68680;SDS011;55836;49.858;6.756;2022-10-15T04:06:23;17.63;;;8.10;;
68680;SDS011;55836;49.858;6.756;2022-10-15T04:08:49;16.97;;;9.80;;
68680;SDS011;55836;49.858;6.756;2022-10-15T04:11:15;15.23;;;9.47;;
68680;SDS011;55836;49.858;6.756;2022-10-15T04:13:41;15.77;;;8.77;;
68680;SDS011;55836;49.858;6.756;2022-10-15T04:16:07;15.50;;;7.90;;
68680;SDS011;55836;49.858;6.756;2022-10-15T04:18:33;18.27;;;8.23;;
68680;SDS011;55836;49.858;6.756;2022-10-15T04:20:59;12.53;;;6.97;;
68680;SDS011;55836;49.858;6.756;2022-10-15T04:23:25;13.53;;;6.60;;
68680;SDS011;55836;49.858;6.756;2022-10-15T04:25:51;11.90;;;6.43;;
68680;SDS011;55836;49.858;6.756;2022-10-15T04:28:18;16.73;;;6.70;;
68680;SDS011;55836;49.858;6.756;2022-10-15T04:30:44;11.27;;;6.60;;
68680;SDS011;55836;49.858;6.756;2022-10-15T04:33:10;14.10;;;7.40;;
68680;SDS011;55836;49.858;6.756;2022-10-15T04:35:36;13.90;;;6.47;;
68680;SDS011;55836;49.858;6.756;2022-10-15T04:38:02;10.73;;;5.87;;
68680;SDS011;55836;49.858;6.756;2022-10-15T04:40:28;12.87;;;6.63;;
68680;SDS011;55836;49.858;6.756;2022-10-15T04:42:54;11.20;;;5.77;;
68680;SDS011;55836;49.858;6.756;2022-10-15T04:45:20;10.27;;;5.30;;
68680;SDS011;55836;49.858;6.756;2022-10-15T04:47:46;8.37;;;5.10;;
68680;SDS011;55836;49.858;6.756;2022-10-15T04:50:12;9.00;;;5.10;;
68680;SDS011;55836;49.858;6.756;2022-10-15T04:52:38;12.63;;;5.80;;
68680;SDS011;55836;49.858;6.756;2022-10-15T04:55:04;11.07;;;5.30;;
68680;SDS011;55836;49.858;6.756;2022-10-15T04:57:30;11.03;;;4.80;;
68680;SDS011;55836;49.858;6.756;2022-10-15T04:59:57;6.40;;;4.30;;
68680;SDS011;55836;49.858;6.756;2022-10-15T05:02:23;10.57;;;4.80;;
68680;SDS011;55836;49.858;6.756;2022-10-15T05:04:49;10.50;;;4.37;;
68680;SDS011;55836;49.858;6.756;2022-10-15T05:07:15;11.77;;;4.97;;
68680;SDS011;55836;49.858;6.756;2022-10-15T05:09:41;14.33;;;4.93;;
68680;SDS011;55836;49.858;6.756;2022-10-15T05:12:07;9.97;;;4.10;;
68680;SDS011;55836;49.858;6.756;2022-10-15T05:14:33;8.50;;;3.83;;
68680;SDS011;55836;49.858;6.756;2022-10-15T05:16:59;5.20;;;3.43;;
68680;SDS011;55836;49.858;6.756;2022-10-15T05:19:25;8.43;;;3.50;;
68680;SDS011;55836;49.858;6.756;2022-10-15T05:21:51;8.60;;;3.57;;
68680;SDS011;55836;49.858;6.756;2022-10-15T05:24:17;8.67;;;4.10;;
68680;SDS011;55836;49.858;6.756;2022-10-15T05:26:43;7.40;;;4.40;;
68680;SDS011;55836;49.858;6.756;2022-10-15T05:29:09;12.83;;;5.87;;
68680;SDS011;55836;49.858;6.756;2022-10-15T05:31:35;6.67;;;4.77;;
68680;SDS011;55836;49.858;6.756;2022-10-15T05:34:05;10.53;;;5.10;;
68680;SDS011;55836;49.858;6.756;2022-10-15T05:36:31;13.07;;;5.70;;
68680;SDS011;55836;49.858;6.756;2022-10-15T05:38:59;13.33;;;5.50;;
68680;SDS011;55836;49.858;6.756;2022-10-15T05:41:25;11.10;;;6.00;;
68680;SDS011;55836;49.858;6.756;2022-10-15T05:43:52;13.73;;;6.60;;
68680;SDS011;55836;49.858;6.756;2022-10-15T05:46:19;9.47;;;6.67;;
68680;SDS011;55836;49.858;6.756;2022-10-15T05:48:52;10.90;;;6.13;;
68680;SDS011;55836;49.858;6.756;2022-10-15T05:51:18;8.50;;;5.70;;
68680;SDS011;55836;49.858;6.756;2022-10-15T05:53:44;6.70;;;5.67;;
68680;SDS011;55836;49.858;6.756;2022-10-15T05:56:11;8.33;;;5.97;;
68680;SDS011;55836;49.858;6.756;2022-10-15T05:58:37;7.33;;;6.23;;
68680;SDS011;55836;49.858;6.756;2022-10-15T06:01:04;8.37;;;6.50;;
68680;SDS011;55836;49.858;6.756;2022-10-15T06:03:31;10.90;;;6.13;;
68680;SDS011;55836;49.858;6.756;2022-10-15T06:05:57;7.40;;;6.17;;
68680;SDS011;55836;49.858;6.756;2022-10-15T06:08:23;6.97;;;5.77;;
68680;SDS011;55836;49.858;6.756;2022-10-15T06:10:49;9.47;;;6.33;;
68680;SDS011;55836;49.858;6.756;2022-10-15T06:13:15;8.63;;;5.07;;
68680;SDS011;55836;49.858;6.756;2022-10-15T06:15:45;9.50;;;4.93;;
68680;SDS011;55836;49.858;6.756;2022-10-15T06:18:11;6.07;;;4.83;;
68680;SDS011;55836;49.858;6.756;2022-10-15T06:20:39;7.73;;;5.43;;
68680;SDS011;55836;49.858;6.756;2022-10-15T06:23:05;6.17;;;5.17;;
68680;SDS011;55836;49.858;6.756;2022-10-15T06:25:32;6.07;;;4.20;;
68680;SDS011;55836;49.858;6.756;2022-10-15T06:28:05;6.57;;;4.70;;
68680;SDS011;55836;49.858;6.756;2022-10-15T06:30:31;9.03;;;5.00;;
68680;SDS011;55836;49.858;6.756;2022-10-15T06:32:57;8.10;;;5.27;;
68680;SDS011;55836;49.858;6.756;2022-10-15T06:35:24;6.37;;;4.60;;
68680;SDS011;55836;49.858;6.756;2022-10-15T06:37:53;6.53;;;5.27;;
68680;SDS011;55836;49.858;6.756;2022-10-15T06:40:19;5.37;;;4.60;;
68680;SDS011;55836;49.858;6.756;2022-10-15T06:42:45;5.73;;;4.40;;
68680;SDS011;55836;49.858;6.756;2022-10-15T06:45:11;5.37;;;4.53;;
68680;SDS011;55836;49.858;6.756;2022-10-15T06:47:41;5.73;;;4.40;;
68680;SDS011;55836;49.858;6.756;2022-10-15T06:50:07;5.83;;;4.00;;
68680;SDS011;55836;49.858;6.756;2022-10-15T06:52:33;8.13;;;5.07;;
68680;SDS011;55836;49.858;6.756;2022-10-15T06:54:59;6.77;;;4.77;;
68680;SDS011;55836;49.858;6.756;2022-10-15T06:57:26;5.30;;;4.20;;
68680;SDS011;55836;49.858;6.756;2022-10-15T06:59:52;7.80;;;4.70;;
68680;SDS011;55836;49.858;6.756;2022-10-15T07:02:18;8.23;;;4.13;;
68680;SDS011;55836;49.858;6.756;2022-10-15T07:04:45;8.40;;;6.93;;
68680;SDS011;55836;49.858;6.756;2022-10-15T07:07:11;5.87;;;4.70;;
68680;SDS011;55836;49.858;6.756;2022-10-15T07:09:37;7.47;;;4.80;;
68680;SDS011;55836;49.858;6.756;2022-10-15T07:12:03;7.53;;;5.60;;
68680;SDS011;55836;49.858;6.756;2022-10-15T07:14:30;7.07;;;4.50;;
68680;SDS011;55836;49.858;6.756;2022-10-15T07:16:56;6.07;;;5.00;;
68680;SDS011;55836;49.858;6.756;2022-10-15T07:19:22;7.37;;;4.77;;
68680;SDS011;55836;49.858;6.756;2022-10-15T07:21:48;8.23;;;5.17;;
68680;SDS011;55836;49.858;6.756;2022-10-15T07:24:14;7.03;;;5.33;;
68680;SDS011;55836;49.858;6.756;2022-10-15T07:26:40;7.27;;;4.60;;
68680;SDS011;55836;49.858;6.756;2022-10-15T07:29:06;6.67;;;4.87;;
68680;SDS011;55836;49.858;6.756;2022-10-15T07:31:32;8.43;;;5.37;;
68680;SDS011;55836;49.858;6.756;2022-10-15T07:33:58;7.33;;;5.33;;
68680;SDS011;55836;49.858;6.756;2022-10-15T07:36:25;8.40;;;5.73;;
68680;SDS011;55836;49.858;6.756;2022-10-15T07:38:51;8.93;;;5.80;;
68680;SDS011;55836;49.858;6.756;2022-10-15T07:41:17;7.97;;;4.67;;
68680;SDS011;55836;49.858;6.756;2022-10-15T07:43:43;8.20;;;5.73;;
68680;SDS011;55836;49.858;6.756;2022-10-15T07:46:10;8.03;;;5.93;;
68680;SDS011;55836;49.858;6.756;2022-10-15T07:48:36;7.77;;;5.80;;
68680;SDS011;55836;49.858;6.756;2022-10-15T07:51:03;10.37;;;6.57;;
68680;SDS011;55836;49.858;6.756;2022-10-15T07:53:30;7.43;;;5.20;;
68680;SDS011;55836;49.858;6.756;2022-10-15T07:56:00;7.27;;;5.67;;
68680;SDS011;55836;49.858;6.756;2022-10-15T07:58:26;8.93;;;5.50;;
68680;SDS011;55836;49.858;6.756;2022-10-15T08:00:54;9.67;;;5.53;;
68680;SDS011;55836;49.858;6.756;2022-10-15T08:03:20;10.37;;;5.57;;
68680;SDS011;55836;49.858;6.756;2022-10-15T08:05:46;7.63;;;6.27;;
68680;SDS011;55836;49.858;6.756;2022-10-15T08:08:12;7.67;;;5.37;;
68680;SDS011;55836;49.858;6.756;2022-10-15T08:10:38;5.67;;;4.80;;
68680;SDS011;55836;49.858;6.756;2022-10-15T08:13:04;8.60;;;6.33;;
68680;SDS011;55836;49.858;6.756;2022-10-15T08:15:30;7.57;;;6.33;;
68680;SDS011;55836;49.858;6.756;2022-10-15T08:17:57;8.63;;;5.53;;
68680;SDS011;55836;49.858;6.756;2022-10-15T08:20:24;5.83;;;4.70;;
68680;SDS011;55836;49.858;6.756;2022-10-15T08:22:50;5.30;;;4.73;;
68680;SDS011;55836;49.858;6.756;2022-10-15T08:25:16;7.10;;;5.43;;
68680;SDS011;55836;49.858;6.756;2022-10-15T08:27:42;9.87;;;5.43;;
68680;SDS011;55836;49.858;6.756;2022-10-15T08:30:08;6.37;;;5.43;;
68680;SDS011;55836;49.858;6.756;2022-10-15T08:32:34;8.53;;;5.03;;
68680;SDS011;55836;49.858;6.756;2022-10-15T08:35:00;5.63;;;4.60;;
68680;SDS011;55836;49.858;6.756;2022-10-15T08:37:26;9.60;;;5.23;;
68680;SDS011;55836;49.858;6.756;2022-10-15T08:39:52;7.23;;;4.80;;
68680;SDS011;55836;49.858;6.756;2022-10-15T08:42:20;5.70;;;4.40;;
68680;SDS011;55836;49.858;6.756;2022-10-15T08:44:50;6.90;;;4.27;;
68680;SDS011;55836;49.858;6.756;2022-10-15T08:47:30;6.03;;;4.83;;
68680;SDS011;55836;49.858;6.756;2022-10-15T08:50:03;7.00;;;5.47;;
68680;SDS011;55836;49.858;6.756;2022-10-15T08:52:39;7.97;;;5.53;;
68680;SDS011;55836;49.858;6.756;2022-10-15T08:55:08;10.10;;;5.83;;
68680;SDS011;55836;49.858;6.756;2022-10-15T09:00:16;6.47;;;4.60;;
68680;SDS011;55836;49.858;6.756;2022-10-15T09:02:53;8.27;;;4.83;;
68680;SDS011;55836;49.858;6.756;2022-10-15T09:08:09;9.43;;;5.40;;
68680;SDS011;55836;49.858;6.756;2022-10-15T09:10:48;6.37;;;4.87;;
68680;SDS011;55836;49.858;6.756;2022-10-15T09:13:23;6.50;;;4.90;;
68680;SDS011;55836;49.858;6.756;2022-10-15T09:15:52;7.27;;;5.53;;
68680;SDS011;55836;49.858;6.756;2022-10-15T09:18:21;5.00;;;4.50;;
68680;SDS011;55836;49.858;6.756;2022-10-15T09:20:47;4.57;;;3.77;;
68680;SDS011;55836;49.858;6.756;2022-10-15T09:23:19;6.07;;;4.20;;
68680;SDS011;55836;49.858;6.756;2022-10-15T09:25:48;4.53;;;3.80;;
68680;SDS011;55836;49.858;6.756;2022-10-15T09:28:16;4.90;;;3.87;;
68680;SDS011;55836;49.858;6.756;2022-10-15T09:30:53;3.90;;;2.90;;
68680;SDS011;55836;49.858;6.756;2022-10-15T09:35:53;6.70;;;5.10;;
68680;SDS011;55836;49.858;6.756;2022-10-15T09:43:26;4.93;;;3.60;;
68680;SDS011;55836;49.858;6.756;2022-10-15T09:45:55;4.33;;;3.50;;
68680;SDS011;55836;49.858;6.756;2022-10-15T09:48:21;5.57;;;4.03;;
68680;SDS011;55836;49.858;6.756;2022-10-15T09:50:55;4.03;;;3.70;;
68680;SDS011;55836;49.858;6.756;2022-10-15T10:03:20;4.17;;;3.20;;
68680;SDS011;55836;49.858;6.756;2022-10-15T10:05:48;3.40;;;3.10;;
68680;SDS011;55836;49.858;6.756;2022-10-15T10:08:19;5.03;;;2.97;;
68680;SDS011;55836;49.858;6.756;2022-10-15T10:10:56;6.63;;;3.17;;
68680;SDS011;55836;49.858;6.756;2022-10-15T10:15:49;5.07;;;3.17;;
68680;SDS011;55836;49.858;6.756;2022-10-15T10:18:17;6.17;;;3.57;;
68680;SDS011;55836;49.858;6.756;2022-10-15T10:20:54;5.67;;;3.27;;
68680;SDS011;55836;49.858;6.756;2022-10-15T10:23:23;5.20;;;2.60;;
68680;SDS011;55836;49.858;6.756;2022-10-15T10:25:49;5.00;;;2.83;;
68680;SDS011;55836;49.858;6.756;2022-10-15T10:28:25;6.33;;;3.47;;
68680;SDS011;55836;49.858;6.756;2022-10-15T10:33:28;4.23;;;2.53;;
68680;SDS011;55836;49.858;6.756;2022-10-15T10:35:55;9.10;;;2.67;;
68680;SDS011;55836;49.858;6.756;2022-10-15T10:38:22;4.53;;;2.63;;
68680;SDS011;55836;49.858;6.756;2022-10-15T10:40:49;4.40;;;2.37;;
68680;SDS011;55836;49.858;6.756;2022-10-15T10:48:22;5.20;;;3.77;;
68680;SDS011;55836;49.858;6.756;2022-10-15T10:50:53;4.07;;;3.07;;
68680;SDS011;55836;49.858;6.756;2022-10-15T10:53:26;3.90;;;2.90;;
68680;SDS011;55836;49.858;6.756;2022-10-15T10:55:52;5.90;;;2.97;;
68680;SDS011;55836;49.858;6.756;2022-10-15T10:58:20;2.70;;;2.50;;
68680;SDS011;55836;49.858;6.756;2022-10-15T11:00:47;2.03;;;1.87;;
68680;SDS011;55836;49.858;6.756;2022-10-15T11:03:19;5.07;;;4.00;;
68680;SDS011;55836;49.858;6.756;2022-10-15T11:05:47;3.33;;;1.77;;
68680;SDS011;55836;49.858;6.756;2022-10-15T11:15:51;1.60;;;1.50;;
68680;SDS011;55836;49.858;6.756;2022-10-15T11:26:09;2.10;;;1.90;;
68680;SDS011;55836;49.858;6.756;2022-10-15T11:36:31;2.70;;;1.40;;
68680;SDS011;55836;49.858;6.756;2022-10-15T11:41:54;2.17;;;1.97;;
68680;SDS011;55836;49.858;6.756;2022-10-15T11:44:31;5.20;;;4.00;;
68680;SDS011;55836;49.858;6.756;2022-10-15T11:47:02;1.60;;;1.50;;
68680;SDS011;55836;49.858;6.756;2022-10-15T11:49:43;3.40;;;1.40;;
68680;SDS011;55836;49.858;6.756;2022-10-15T11:54:38;5.53;;;3.23;;
68680;SDS011;55836;49.858;6.756;2022-10-15T11:57:07;2.10;;;1.90;;
68680;SDS011;55836;49.858;6.756;2022-10-15T12:00:35;2.40;;;2.00;;
68680;SDS011;55836;49.858;6.756;2022-10-15T12:02:35;3.83;;;1.90;;
68680;SDS011;55836;49.858;6.756;2022-10-15T12:05:06;3.77;;;3.37;;
68680;SDS011;55836;49.858;6.756;2022-10-15T12:07:36;3.70;;;2.40;;
68680;SDS011;55836;49.858;6.756;2022-10-15T12:10:05;2.07;;;1.97;;
68680;SDS011;55836;49.858;6.756;2022-10-15T12:12:48;2.90;;;1.90;;
68680;SDS011;55836;49.858;6.756;2022-10-15T12:15:29;4.07;;;2.10;;
68680;SDS011;55836;49.858;6.756;2022-10-15T12:20:43;3.90;;;3.60;;
68680;SDS011;55836;49.858;6.756;2022-10-15T12:23:43;1.97;;;1.87;;
68680;SDS011;55836;49.858;6.756;2022-10-15T12:26:11;3.00;;;1.40;;
68680;SDS011;55836;49.858;6.756;2022-10-15T12:28:51;3.73;;;2.07;;
68680;SDS011;55836;49.858;6.756;2022-10-15T12:31:18;3.33;;;1.50;;
68680;SDS011;55836;49.858;6.756;2022-10-15T12:33:51;1.53;;;1.00;;
68680;SDS011;55836;49.858;6.756;2022-10-15T12:41:46;1.10;;;1.00;;
68680;SDS011;55836;49.858;6.756;2022-10-15T12:46:39;2.57;;;1.70;;
68680;SDS011;55836;49.858;6.756;2022-10-15T12:51:55;1.80;;;1.70;;
68680;SDS011;55836;49.858;6.756;2022-10-15T12:54:41;8.27;;;6.67;;
68680;SDS011;55836;49.858;6.756;2022-10-15T12:59:54;2.10;;;1.60;;
68680;SDS011;55836;49.858;6.756;2022-10-15T13:05:26;1.43;;;1.33;;
68680;SDS011;55836;49.858;6.756;2022-10-15T13:07:52;2.30;;;1.60;;
68680;SDS011;55836;49.858;6.756;2022-10-15T13:10:27;2.03;;;1.30;;
68680;SDS011;55836;49.858;6.756;2022-10-15T13:12:54;2.87;;;1.90;;
68680;SDS011;55836;49.858;6.756;2022-10-15T13:15:25;1.57;;;1.40;;
68680;SDS011;55836;49.858;6.756;2022-10-15T13:17:52;3.73;;;1.90;;
68680;SDS011;55836;49.858;6.756;2022-10-15T13:23:06;2.57;;;2.37;;
68680;SDS011;55836;49.858;6.756;2022-10-15T13:25:32;2.90;;;2.20;;
68680;SDS011;55836;49.858;6.756;2022-10-15T13:27:58;2.73;;;2.43;;
68680;SDS011;55836;49.858;6.756;2022-10-15T13:30:24;2.53;;;2.33;;
68680;SDS011;55836;49.858;6.756;2022-10-15T13:32:51;3.23;;;1.63;;
68680;SDS011;55836;49.858;6.756;2022-10-15T13:35:19;2.77;;;2.57;;
68680;SDS011;55836;49.858;6.756;2022-10-15T13:37:46;2.17;;;2.07;;
68680;SDS011;55836;49.858;6.756;2022-10-15T13:40:19;1.90;;;1.80;;
68680;SDS011;55836;49.858;6.756;2022-10-15T13:42:59;5.20;;;4.30;;
68680;SDS011;55836;49.858;6.756;2022-10-15T13:45:25;3.07;;;2.47;;
68680;SDS011;55836;49.858;6.756;2022-10-15T13:47:53;3.30;;;3.00;;
68680;SDS011;55836;49.858;6.756;2022-10-15T13:50:32;2.57;;;2.00;;
68680;SDS011;55836;49.858;6.756;2022-10-15T13:55:47;2.50;;;2.23;;
68680;SDS011;55836;49.858;6.756;2022-10-15T14:00:50;1.87;;;1.67;;
68680;SDS011;55836;49.858;6.756;2022-10-15T14:03:19;2.27;;;1.70;;
68680;SDS011;55836;49.858;6.756;2022-10-15T14:05:47;5.03;;;3.07;;
68680;SDS011;55836;49.858;6.756;2022-10-15T14:08:22;6.00;;;4.17;;
68680;SDS011;55836;49.858;6.756;2022-10-15T14:10:49;3.07;;;2.73;;
68680;SDS011;55836;49.858;6.756;2022-10-15T14:13:15;2.10;;;2.00;;
68680;SDS011;55836;49.858;6.756;2022-10-15T14:15:43;2.40;;;1.53;;
68680;SDS011;55836;49.858;6.756;2022-10-15T14:18:10;1.90;;;1.57;;
68680;SDS011;55836;49.858;6.756;2022-10-15T14:20:41;6.20;;;2.10;;
68680;SDS011;55836;49.858;6.756;2022-10-15T14:23:19;3.73;;;2.23;;
68680;SDS011;55836;49.858;6.756;2022-10-15T14:25:50;3.47;;;2.10;;
68680;SDS011;55836;49.858;6.756;2022-10-15T14:28:18;2.13;;;1.63;;
68680;SDS011;55836;49.858;6.756;2022-10-15T14:30:45;4.70;;;2.90;;
68680;SDS011;55836;49.858;6.756;2022-10-15T14:36:58;2.20;;;2.00;;
68680;SDS011;55836;49.858;6.756;2022-10-15T14:39:16;1.70;;;1.60;;
68680;SDS011;55836;49.858;6.756;2022-10-15T14:42:01;3.63;;;2.80;;
68680;SDS011;55836;49.858;6.756;2022-10-15T14:44:40;4.93;;;1.60;;
68680;SDS011;55836;49.858;6.756;2022-10-15T14:47:09;1.67;;;1.50;;
68680;SDS011;55836;49.858;6.756;2022-10-15T14:49:40;1.70;;;1.60;;
68680;SDS011;55836;49.858;6.756;2022-10-15T14:52:07;2.17;;;1.40;;
68680;SDS011;55836;49.858;6.756;2022-10-15T14:54:46;1.87;;;1.60;;
68680;SDS011;55836;49.858;6.756;2022-10-15T14:57:18;3.10;;;1.90;;
68680;SDS011;55836;49.858;6.756;2022-10-15T14:59:45;3.50;;;1.70;;
68680;SDS011;55836;49.858;6.756;2022-10-15T15:02:12;4.57;;;2.30;;
68680;SDS011;55836;49.858;6.756;2022-10-15T15:04:40;4.13;;;2.53;;
68680;SDS011;55836;49.858;6.756;2022-10-15T15:07:17;3.00;;;2.67;;
68680;SDS011;55836;49.858;6.756;2022-10-15T15:09:47;5.70;;;4.03;;
68680;SDS011;55836;49.858;6.756;2022-10-15T15:12:14;5.77;;;4.10;;
68680;SDS011;55836;49.858;6.756;2022-10-15T15:14:42;6.00;;;4.03;;
68680;SDS011;55836;49.858;6.756;2022-10-15T15:17:11;4.40;;;3.90;;
68680;SDS011;55836;49.858;6.756;2022-10-15T15:19:38;6.03;;;5.43;;
68680;SDS011;55836;49.858;6.756;2022-10-15T15:22:04;4.70;;;4.27;;
68680;SDS011;55836;49.858;6.756;2022-10-15T15:24:32;8.20;;;6.93;;
68680;SDS011;55836;49.858;6.756;2022-10-15T15:26:58;6.80;;;5.10;;
68680;SDS011;55836;49.858;6.756;2022-10-15T15:29:24;7.13;;;5.40;;
68680;SDS011;55836;49.858;6.756;2022-10-15T15:31:50;4.00;;;3.67;;
68680;SDS011;55836;49.858;6.756;2022-10-15T15:34:16;4.27;;;2.70;;
68680;SDS011;55836;49.858;6.756;2022-10-15T15:36:42;4.40;;;4.00;;
68680;SDS011;55836;49.858;6.756;2022-10-15T15:39:08;3.70;;;2.50;;
68680;SDS011;55836;49.858;6.756;2022-10-15T15:41:34;2.23;;;2.00;;
68680;SDS011;55836;49.858;6.756;2022-10-15T15:44:01;6.77;;;6.00;;
68680;SDS011;55836;49.858;6.756;2022-10-15T15:46:28;4.83;;;3.97;;
68680;SDS011;55836;49.858;6.756;2022-10-15T15:48:54;8.60;;;5.20;;
68680;SDS011;55836;49.858;6.756;2022-10-15T15:51:29;2.53;;;2.33;;
68680;SDS011;55836;49.858;6.756;2022-10-15T15:53:56;7.03;;;4.63;;
68680;SDS011;55836;49.858;6.756;2022-10-15T15:56:22;4.47;;;3.80;;
68680;SDS011;55836;49.858;6.756;2022-10-15T15:58:48;3.70;;;2.33;;
68680;SDS011;55836;49.858;6.756;2022-10-15T16:01:15;2.23;;;1.80;;
68680;SDS011;55836;49.858;6.756;2022-10-15T16:03:41;2.67;;;2.07;;
68680;SDS011;55836;49.858;6.756;2022-10-15T16:06:07;5.90;;;4.97;;
68680;SDS011;55836;49.858;6.756;2022-10-15T16:08:34;2.83;;;2.30;;
68680;SDS011;55836;49.858;6.756;2022-10-15T16:11:01;3.60;;;3.17;;
68680;SDS011;55836;49.858;6.756;2022-10-15T16:13:27;4.13;;;2.20;;
68680;SDS011;55836;49.858;6.756;2022-10-15T16:15:53;2.30;;;2.20;;
68680;SDS011;55836;49.858;6.756;2022-10-15T16:18:19;5.47;;;2.33;;
68680;SDS011;55836;49.858;6.756;2022-10-15T16:20:46;2.03;;;1.83;;
68680;SDS011;55836;49.858;6.756;2022-10-15T16:23:12;2.50;;;2.30;;
68680;SDS011;55836;49.858;6.756;2022-10-15T16:25:38;2.70;;;2.10;;
68680;SDS011;55836;49.858;6.756;2022-10-15T16:28:04;4.37;;;3.53;;
68680;SDS011;55836;49.858;6.756;2022-10-15T16:30:30;3.70;;;3.37;;
68680;SDS011;55836;49.858;6.756;2022-10-15T16:32:56;4.70;;;2.60;;
68680;SDS011;55836;49.858;6.756;2022-10-15T16:35:22;2.70;;;2.50;;
68680;SDS011;55836;49.858;6.756;2022-10-15T16:37:48;3.03;;;2.70;;
68680;SDS011;55836;49.858;6.756;2022-10-15T16:40:17;4.43;;;3.00;;
68680;SDS011;55836;49.858;6.756;2022-10-15T16:42:44;5.13;;;4.57;;
68680;SDS011;55836;49.858;6.756;2022-10-15T16:45:10;4.97;;;4.20;;
68680;SDS011;55836;49.858;6.756;2022-10-15T16:47:36;6.47;;;4.90;;
68680;SDS011;55836;49.858;6.756;2022-10-15T16:50:02;4.70;;;3.63;;
68680;SDS011;55836;49.858;6.756;2022-10-15T16:52:28;4.10;;;3.60;;